Aeroporto :
LOGIN :

Iscrizione | Disclaimer

   EN    FR    IT 

 










Sommario :    VFR   VFR Marginale   IFR   IFR Intensivo   IFR Molto Intensivo
Visibilità : 
Base nubi : 
>= 8 km
>= 3000ft
5 / 8 km
1000 / 3000 ft
1500m / 5 km
500 / 1000 ft
800 / 1500m
200 / 500 ft
< 800m
< 200 ft
Simboli :   Temporali  Nebbia  Neve Forte  Precipitazioni Forti  Vento > 20 kt
SIGMETs :   Varie  Temporali  Ghiacco  Turbolenza  Onda orograficha  Ceneri Vulcaniche






- Altitudine del aeroporto : 682 ft
- Codice IATA : VTB


UMII - Vitebsk

ULTIMO METAR :
  • 011400Z 20003MPS 9999 FEW010 OVC020 M01/M04 Q1029 R23/720260 TEMPO SCT007

METARs OBSOLETI :
  • 011300Z 23003MPS 9999 FEW010 BKN020 M01/M04 Q1028 R23/720260 TEMPO SCT007
  • 011200Z 24002MPS 9999 FEW013 BKN026 M00/M03 Q1028 R23/720260 TEMPO SCT007

TAF TAF UMII
Valido dal 01 a 15 ore il 02 a 00 ore UTC


011405Z 0115/0124 VRB02MPS 6000 BKN012
TEMPO 0115/0124 18005MPS 2100 -SN BR BKN005



MetMap, La meteo Aeronautica in un colpo d'occhio ! - Copyright ORBIFLY Dicembre 2007 - Disclaimer

ORBIFLY MET'MAP TEAM :

Programmazione e sviluppo : Alexandra Zaïnal
Concezione : Baudouin d'Aumeries
Aiuto per la programmazione : Marc-Olivier Méhu
Supporto tecnico e logistico : Manuel Goepfert
Aiuto per la traduzione : Arnaldo La Scala

Contatto : metmap@orbifly.com




FONTI E CREDITI :

   NOAA